Latest Coastal Weather Observations for Gabo Island

IDT60701

Issued at 3:42 am EDT Friday 5 March 2021 (issued every 10 minutes, with the page automatically refreshed every 10 minutes)

About coastal observations | Map of coastal stations | Coastal observations for TAS | Marine services | Other Formats
Station Details ID: 084016 Name: GABO ISLAND LIGHTHOUSE Lat: -37.57 Lon: 149.92 Height: 15.0 m
Data from the previous 72 hours. | See also: Recent months at Gabo Island
Date/Time
EDT
Wind Sea
Height
m
Swell Vis
km
Cloud Weather Temp
°C
Press
MSL
hPa
Rain since
9am
mm
Dir  Spd
kts
Gust
kts
Height
m
Period
s
Dir
05/03:37am SW 34 44 - - - - - - - 17.3 1006.6 0.0
05/03:30am SW 36 44 - - - - - - - 17.3 1006.5 0.0
05/03:00am WSW 34 44 3 2.5 8 S 30 Mostly cloudy Fine 17.3 1006.5 0.0
05/02:30am WSW 33 43 - - - - - - - 17.6 1006.3 0.0
05/02:09am WSW 32 42 - - - - - - - 17.8 1006.2 0.0
05/02:00am WSW 30 38 - - - - - - - 18.3 1006.4 0.0
05/01:44am SW 29 39 - - - - - - - 18.3 1006.4 0.0
05/01:30am WSW 31 37 - - - - - - - 18.5 1006.5 0.0
05/01:07am WSW 30 43 - - - - - - - 18.8 1006.1 0.0
05/01:00am WSW 27 34 - - - - - - - 18.9 1006.2 0.0
05/12:35am WSW 27 37 - - - - - - - 19.0 1006.5 0.0
05/12:30am WSW 26 34 - - - - - - - 19.1 1006.5 0.0
05/12:00am WSW 25 35 - - - - - - - 19.1 1006.6 0.0
 
Date/Time
EDT
Wind Sea
Height
m
Swell Vis
km
Cloud Weather Temp
°C
Press
MSL
hPa
Rain since
9am
mm
Dir  Spd
kts
Gust
kts
Height
m
Period
s
Dir
04/11:30pm WSW 24 32 - - - - - - - 19.2 1006.8 0.0
04/11:01pm WSW 26 37 - - - - - - - 19.1 1006.9 0.0
04/11:00pm WSW 25 34 - - - - - - - 19.2 1006.9 0.0
04/10:39pm WSW 25 35 - - - - - - - 19.2 1007.3 0.0
04/10:30pm WSW 26 33 - - - - - - - 19.3 1007.4 0.0
04/10:00pm WSW 21 29 - - - - - - - 19.3 1007.9 0.0
04/09:44pm WSW 20 31 - - - - - - - 19.2 1008.0 0.0
04/09:30pm WSW 20 27 - - - - - - - 19.3 1008.1 0.0
04/09:08pm WSW 19 31 - - - - - - - 19.3 1008.1 0.0
04/09:00pm WSW 19 25 2 2.0 8 S 30 Cloudy Fine 19.2 1008.0 0.0
04/08:30pm WSW 20 25 - - - - - - - 19.4 1007.7 0.0
04/08:00pm WSW 18 22 - - - - - - - 19.4 1007.7 0.0
04/07:30pm SW 18 23 - - - - - - - 19.6 1007.6 0.0
04/07:00pm WSW 20 25 - - - - - - - 20.1 1007.5 0.0
04/06:30pm SW 20 23 - - - - - - - 20.3 1007.5 0.0
04/06:00pm SW 21 27 - - - - - - - 20.3 1007.5 0.0
04/05:30pm SW 24 29 - - - - - - - 19.6 1007.7 0.0
04/05:00pm SW 27 32 - - - - - - - 19.4 1008.0 0.0
04/04:30pm SW 30 35 - - - - - - - 19.3 1008.0 0.0
04/04:00pm SW 26 31 - - - - - - - 19.7 1008.4 0.0
04/03:30pm SW 24 28 - - - - - - - 20.5 1009.0 0.0
04/03:01pm - - - 3 2.5 8 S - - - - - -
04/03:00pm SW 28 33 3 3.0 - - 30 Mostly clear Fine 19.2 1009.2 0.0
04/02:30pm SW 27 32 - - - - - - - 18.8 1009.7 0.0
04/02:00pm SW 25 30 - - - - - - - 18.9 1010.2 0.0
04/01:30pm SW 24 28 - - - - - - - 19.1 1010.6 0.0
04/01:00pm SW 20 27 - - - - - - - 19.3 1011.2 0.0
04/12:30pm WSW 20 26 - - - - - - - 19.6 1011.9 0.0
04/12:00pm WSW 18 23 - - - - - - - 19.6 1012.4 0.0
04/11:30am WSW 18 24 - - - - - - - 19.4 1012.6 0.0
04/11:00am WSW 19 23 - - - - - - - 18.7 1012.7 0.0
04/10:30am WSW 20 25 - - - - - - - 18.0 1012.9 0.0
04/10:00am WSW 20 25 - - - - - - - 17.4 1013.0 0.0
04/09:30am W 21 29 - - - - - - - 17.0 1013.0 0.0
04/09:00am W 20 25 2 1.5 8 S 40 Mostly clear Fine 16.3 1013.4 0.0
04/08:30am W 17 22 - - - - - - - 15.5 1013.7 0.0
04/08:00am WNW 13 19 - - - - - - - 14.5 1013.8 0.0
04/07:30am WNW 13 17 - - - - - - - 13.9 1013.7 0.0
04/07:00am WNW 14 18 - - - - - - - 13.7 1013.6 0.0
04/06:30am W 17 21 - - - - - - - 13.9 1013.7 0.0
04/06:00am W 18 22 - - - - - - - 13.8 1013.7 0.0
04/05:30am W 19 24 - - - - - - - 14.0 1013.7 0.0
04/05:00am W 21 26 - - - - - - - 14.3 1013.9 0.0
04/04:30am W 19 24 - - - - - - - 14.4 1014.1 0.0
04/04:00am W 19 24 - - - - - - - 14.6 1014.1 0.0
04/03:30am W 19 23 - - - - - - - 15.0 1014.5 0.0
04/03:00am W 19 24 2 2.5 7 S 30 Partly cloudy Fine 15.1 1014.9 0.0
04/02:30am W 19 24 - - - - - - - 15.4 1015.1 0.0
04/02:00am W 20 24 - - - - - - - 15.5 1015.4 0.0
04/01:30am W 16 19 - - - - - - - 15.3 1015.7 0.0
04/01:00am W 15 21 - - - - - - - 15.2 1015.9 0.0
04/12:30am W 15 19 - - - - - - - 15.3 1016.1 0.0
04/12:00am W 16 20 - - - - - - - 15.5 1016.1 0.0
 
Date/Time
EDT
Wind Sea
Height
m
Swell Vis
km
Cloud Weather Temp
°C
Press
MSL
hPa
Rain since
9am
mm
Dir  Spd
kts
Gust
kts
Height
m
Period
s
Dir
03/11:30pm W 15 18 - - - - - - - 15.5 1016.3 0.0
03/11:00pm WNW 11 16 - - - - - - - 15.6 1016.5 0.0
03/10:30pm W 14 17 - - - - - - - 15.8 1016.7 0.0
03/10:00pm W 14 17 - - - - - - - 16.2 1016.9 0.0
03/09:30pm WSW 15 19 - - - - - - - 16.6 1016.9 0.0
03/09:03pm - - - 2 2.5 7 S - - - - - -
03/09:00pm SW 23 28 2 3.0 - - 30 Partly cloudy Fine 16.8 1016.8 0.0
03/08:30pm WSW 20 25 - - - - - - - 16.9 1016.6 0.0
03/08:00pm SW 25 30 - - - - - - - 16.9 1016.3 0.0
03/07:30pm SW 24 29 - - - - - - - 17.0 1016.1 0.0
03/07:00pm SW 25 31 - - - - - - - 17.2 1015.9 0.0
03/06:30pm SW 26 32 - - - - - - - 17.7 1016.0 0.0
03/06:00pm SW 28 34 - - - - - - - 17.5 1015.9 0.0
03/05:30pm SW 28 32 - - - - - - - 17.7 1015.8 0.0
03/05:00pm SW 31 35 - - - - - - - 17.4 1015.6 0.0
03/04:30pm SW 29 34 - - - - - - - 17.3 1015.6 0.0
03/04:00pm SW 27 31 - - - - - - - 17.6 1015.7 0.0
03/03:30pm SW 30 35 - - - - - - - 17.0 1015.9 0.0
03/03:00pm SW 25 30 2 2.0 7 S 40 Partly cloudy Fine 17.5 1016.0 0.0
03/02:30pm SW 20 25 - - - - - - - 18.6 1016.4 0.0
03/02:00pm SW 23 28 - - - - - - - 17.8 1016.5 0.0
03/01:30pm SW 23 28 - - - - - - - 18.1 1016.5 0.0
03/01:00pm SW 26 32 - - - - - - - 18.1 1016.7 0.0
03/12:30pm SW 20 25 - - - - - - - 18.3 1017.0 0.0
03/12:00pm SW 22 29 - - - - - - - 18.5 1017.3 0.0
03/11:51am WSW 17 27 - - - - - - - 19.0 1017.4 0.0
03/11:30am WSW 17 22 - - - - - - - 19.1 1017.4 0.0
03/11:00am WSW 20 24 - - - - - - - 18.2 1017.5 0.0
03/10:30am WSW 20 25 - - - - - - - 17.7 1017.4 0.0
03/10:00am WSW 21 26 - - - - - - - 17.2 1017.4 0.0
03/09:30am W 18 22 - - - - - - - 16.3 1017.5 0.0
03/09:00am W 17 21 2 2.5 7 S 40 Partly cloudy Fine 14.8 1017.3 0.0
03/08:30am WNW 15 19 - - - - - - - 14.5 1017.0 0.0
03/08:00am WNW 13 18 - - - - - - - 13.5 1016.9 0.0
03/07:30am WNW 13 17 - - - - - - - 13.1 1016.4 0.0
03/07:00am W 17 22 - - - - - - - 13.6 1015.8 0.0
03/06:30am W 22 27 - - - - - - - 14.0 1015.9 0.0
03/06:00am W 22 28 - - - - - - - 13.9 1015.8 0.0
03/05:30am W 19 25 - - - - - - - 14.0 1015.6 0.0
03/05:00am W 19 24 - - - - - - - 13.8 1015.5 0.0
03/04:30am W 19 25 - - - - - - - 13.8 1015.5 0.0
03/04:00am W 17 22 - - - - - - - 14.1 1015.5 0.0
03/03:30am W 19 24 - - - - - - - 14.5 1015.1 0.0
03/03:00am WSW 21 27 3 3.0 7 S 30 Mostly clear Fine 15.2 1015.1 0.0
03/02:30am WSW 19 24 - - - - - - - 15.1 1015.4 0.0
03/02:00am WSW 21 26 - - - - - - - 15.0 1015.3 0.0
03/01:30am W 19 23 - - - - - - - 15.3 1015.4 0.0
03/01:00am WSW 20 26 - - - - - - - 15.7 1015.5 0.0
03/12:48am WSW 21 31 - - - - - - - 16.0 1015.6 0.0
03/12:30am SW 24 31 - - - - - - - 16.4 1015.6 0.0
03/12:00am SW 29 37 - - - - - - - 15.9 1015.8 0.0
 
Date/Time
EDT
Wind Sea
Height
m
Swell Vis
km
Cloud Weather Temp
°C
Press
MSL
hPa
Rain since
9am
mm
Dir  Spd
kts
Gust
kts
Height
m
Period
s
Dir
02/11:30pm SW 27 32 - - - - - - - 16.5 1015.8 0.0
02/11:00pm SW 28 35 - - - - - - - 16.5 1015.9 0.0
02/10:30pm SW 27 33 - - - - - - - 16.5 1016.0 0.0
02/10:00pm SW 29 34 - - - - - - - 16.5 1016.1 0.0
02/09:30pm SW 29 35 - - - - - - - 16.5 1015.7 0.0
02/09:05pm - - - 3 2.5 7 S - - - - - -
02/09:00pm SW 31 38 3 3.0 - - 30 Mostly cloudy Fine 16.6 1015.4 0.0
02/08:30pm SW 31 39 - - - - - - - 16.4 1014.9 0.0
02/08:00pm WSW 28 34 - - - - - - - 16.2 1014.6 0.0
02/07:44pm SW 29 39 - - - - - - - 16.3 1014.5 0.0
02/07:30pm SW 31 39 - - - - - - - 16.4 1014.2 0.0
02/07:01pm SW 29 39 - - - - - - - 16.4 1014.4 0.0
02/07:00pm SW 30 39 - - - - - - - 16.4 1014.3 0.0
02/06:59pm SW 29 39 - - - - - - - 16.5 1014.4 0.0
02/06:30pm SW 32 40 - - - - - - - 16.7 1014.1 0.0
02/06:00pm SW 33 40 - - - - - - - 16.8 1013.8 0.0
02/05:30pm SW 31 38 - - - - - - - 16.9 1013.6 0.0
02/05:00pm SW 33 40 - - - - - - - 16.8 1013.7 0.0
02/04:30pm SW 29 35 - - - - - - - 16.8 1013.7 0.0
02/04:00pm SW 31 39 - - - - - - - 17.4 1013.6 0.0
02/03:30pm SW 29 36 - - - - - - - 18.0 1013.8 0.0
02/03:00pm SW 29 37 3 3.0 7 S 30 Mostly cloudy Fine 16.8 1013.8 0.0
02/02:30pm SW 31 38 - - - - - - - 17.3 1013.9 0.0
02/02:00pm SW 27 36 - - - - - - - 17.9 1014.0 0.0
02/01:30pm WSW 30 36 - - - - - - - 17.7 1013.9 0.0
02/01:00pm WSW 28 34 - - - - - - - 17.9 1013.9 0.0
02/12:30pm WSW 27 33 - - - - - - - 17.7 1013.9 0.0
02/12:00pm WSW 30 40 - - - - - - - 16.2 1014.0 0.0
02/11:36am WSW 25 35 - - - - - - - 16.6 1013.7 0.0
02/11:30am WSW 25 32 - - - - - - - 16.9 1013.7 0.0
02/11:00am WSW 28 35 - - - - - - - 16.6 1013.5 0.0
02/10:30am WSW 26 33 - - - - - - - 16.2 1013.3 0.0
02/10:00am WSW 27 35 - - - - - - - 16.0 1013.0 0.0
02/09:30am WSW 27 33 - - - - - - - 15.5 1012.7 0.0
02/09:03am - - - 3 3.0 7 S - - - - - -
02/09:00am W 26 34 3 3.0 - - 30 Mostly clear Fine 15.4 1012.4 0.0
02/08:30am W 26 32 - - - - - - - 14.7 1012.2 0.0
02/08:00am WSW 25 33 - - - - - - - 14.8 1012.2 0.0
02/07:30am WSW 27 34 - - - - - - - 14.3 1011.7 0.0
02/07:00am WSW 28 35 - - - - - - - 14.2 1011.3 0.0
02/06:31am WSW 30 41 - - - - - - - 14.3 1010.8 0.0
02/06:30am WSW 29 38 - - - - - - - 14.3 1010.9 0.0
02/06:00am WSW 28 39 - - - - - - - 14.5 1010.9 0.0
02/05:40am WSW 29 39 - - - - - - - 14.5 1010.8 0.0
02/05:30am WSW 30 37 - - - - - - - 14.6 1010.7 0.0
02/05:21am WSW 29 39 - - - - - - - 14.7 1010.8 0.0
02/05:00am WSW 29 37 - - - - - - - 14.8 1010.7 0.0
02/04:30am WSW 29 37 - - - - - - - 15.0 1010.5 0.0
02/04:07am WSW 25 35 - - - - - - - 14.8 1010.5 0.0
02/04:00am WSW 25 33 - - - - - - - 14.8 1010.6 0.0

Other formats

Comma delimited format used in spreadsheet applications
http://www.bom.gov.au/fwo/IDT60701/IDT60701.94933.axf

JavaScript Object Notation format (JSON) in row-major order
http://www.bom.gov.au/fwo/IDT60701/IDT60701.94933.json

Data quality

Most of these data are generated automatically and are frequently updated. Quality checks on data are not normally performed. It is possible for incorrect values to appear. Refer to information at About Latest Weather Observations and please check the disclaimer before using these data.